createdAt,value
2018-09-01T00:00:35.041Z,85.88
2018-09-01T00:01:35.230Z,85.60
2018-09-01T00:02:35.418Z,85.69
2018-09-01T00:03:35.617Z,85.78
2018-09-01T00:04:35.804Z,85.97
2018-09-01T00:05:35.986Z,86.16
2018-09-01T00:06:36.177Z,85.97
2018-09-01T00:07:36.364Z,85.97
2018-09-01T00:08:36.557Z,86.12
2018-09-01T00:09:36.743Z,86.83
2018-09-01T00:10:36.928Z,86.69
2018-09-01T00:11:37.117Z,86.41
2018-09-01T00:12:37.309Z,86.32
2018-09-01T00:13:37.495Z,86.41
2018-09-01T00:14:37.676Z,86.88
2018-09-01T00:15:37.865Z,86.88
2018-09-01T00:16:38.050Z,87.36
2018-09-01T00:17:38.234Z,86.88
2018-09-01T00:18:38.432Z,87.74
2018-09-01T00:19:38.614Z,87.55
2018-09-01T00:20:38.802Z,87.55
2018-09-01T00:21:38.986Z,87.27
2018-09-01T00:22:39.178Z,87.27
2018-09-01T00:23:39.364Z,86.88
2018-09-01T00:24:39.554Z,87.36
2018-09-01T00:25:39.741Z,87.17
2018-09-01T00:26:39.926Z,87.93
2018-09-01T00:27:40.123Z,88.12
2018-09-01T00:28:40.318Z,87.84
2018-09-01T00:29:40.506Z,88.31
2018-09-01T00:30:40.785Z,88.31
2018-09-01T00:31:40.887Z,88.60
2018-09-01T00:32:41.127Z,89.32
2018-09-01T00:33:41.313Z,89.32
2018-09-01T00:34:41.501Z,90.17
2018-09-01T00:35:41.689Z,89.89
2018-09-01T00:36:41.873Z,89.98
2018-09-01T00:37:42.062Z,90.27
2018-09-01T00:38:42.265Z,90.94
2018-09-01T00:39:42.453Z,91.22
2018-09-01T00:40:42.627Z,91.31
2018-09-01T00:41:42.813Z,91.60
2018-09-01T00:42:43.002Z,91.51
2018-09-01T00:43:43.212Z,91.79
2018-09-01T00:44:43.407Z,92.18
2018-09-01T00:45:43.594Z,93.60
2018-09-01T00:46:43.778Z,93.60
2018-09-01T00:47:43.964Z,93.79
2018-09-01T00:48:44.150Z,94.08
2018-09-01T00:49:44.341Z,93.98
2018-09-01T00:50:44.522Z,93.98
2018-09-01T00:51:44.715Z,93.22
2018-09-01T00:52:44.899Z,93.51
2018-09-01T00:53:45.091Z,93.60
2018-09-01T00:54:45.281Z,93.79
2018-09-01T00:55:45.469Z,93.32
2018-09-01T00:56:45.654Z,93.22
2018-09-01T00:57:45.837Z,93.41
2018-09-01T00:58:46.026Z,93.60
2018-09-01T00:59:46.216Z,93.70
2018-09-01T01:00:46.398Z,94.08
2018-09-01T01:01:46.583Z,93.89
2018-09-01T01:02:46.772Z,94.42
2018-09-01T01:03:46.978Z,94.65
2018-09-01T01:04:47.161Z,94.89
2018-09-01T01:05:47.346Z,95.56
2018-09-01T01:06:47.533Z,95.84
2018-09-01T01:07:47.721Z,95.36
2018-09-01T01:08:47.907Z,95.46
2018-09-01T01:09:48.093Z,95.27
2018-09-01T01:10:48.299Z,95.27
2018-09-01T01:11:48.497Z,95.65
2018-09-01T01:12:48.673Z,95.17
2018-09-01T01:13:48.861Z,95.17
2018-09-01T01:14:49.049Z,95.84
2018-09-01T01:15:49.236Z,95.36
2018-09-01T01:16:49.422Z,95.84
2018-09-01T01:17:49.610Z,95.65
2018-09-01T01:18:49.800Z,95.65
2018-09-01T01:19:49.988Z,95.75
2018-09-01T01:20:50.177Z,95.56
2018-09-01T01:21:50.363Z,95.08
2018-09-01T01:22:50.541Z,95.17
2018-09-01T01:23:50.732Z,95.84
2018-09-01T01:24:50.918Z,95.46
2018-09-01T01:25:51.108Z,95.98
2018-09-01T01:26:51.294Z,95.94
2018-09-01T01:27:51.482Z,95.46
2018-09-01T01:28:51.663Z,95.56
2018-09-01T01:29:51.850Z,95.75
2018-09-01T01:30:52.036Z,95.65
2018-09-01T01:31:52.224Z,95.56
2018-09-01T01:32:52.423Z,94.79
2018-09-01T01:33:52.606Z,95.03
2018-09-01T01:34:52.793Z,95.32
2018-09-01T01:35:52.981Z,95.65
2018-09-01T01:36:53.179Z,94.60
2018-09-01T01:37:53.387Z,95.46
2018-09-01T01:38:53.563Z,95.03
2018-09-01T01:39:53.760Z,95.75
2018-09-01T01:40:53.947Z,95.75
2018-09-01T01:41:54.134Z,96.79
2018-09-01T01:42:54.316Z,97.17
2018-09-01T01:43:54.500Z,96.89
2018-09-01T01:44:54.694Z,97.55
2018-09-01T01:45:54.914Z,97.08
2018-09-01T01:46:55.057Z,97.17
2018-09-01T01:47:55.250Z,97.36
2018-09-01T01:48:55.436Z,98.69
2018-09-01T01:49:55.620Z,99.12
2018-09-01T01:50:55.833Z,99.02
2018-09-01T01:51:56.014Z,99.99
2018-09-01T01:52:56.205Z,99.99
2018-09-01T01:53:56.387Z,99.99
2018-09-01T01:54:56.568Z,99.99
2018-09-01T01:55:56.756Z,99.99
2018-09-01T01:56:56.951Z,99.99
2018-09-01T01:57:57.137Z,99.99
2018-09-01T01:58:57.317Z,99.99
2018-09-01T01:59:57.508Z,99.99
2018-09-01T02:00:57.696Z,99.99
2018-09-01T02:01:57.877Z,99.99
2018-09-01T02:02:58.068Z,99.99
2018-09-01T02:03:58.250Z,99.99
2018-09-01T02:04:58.438Z,99.99
2018-09-01T02:05:58.628Z,99.99
2018-09-01T02:06:58.806Z,99.99
2018-09-01T02:07:58.987Z,99.99
2018-09-01T02:08:59.177Z,99.99
2018-09-01T02:09:59.357Z,99.99
2018-09-01T02:10:59.548Z,99.99
2018-09-01T02:11:59.732Z,99.99
2018-09-01T02:12:59.913Z,99.99
2018-09-01T02:14:00.113Z,99.99
2018-09-01T02:15:00.290Z,99.99
2018-09-01T02:16:00.485Z,99.99
2018-09-01T02:17:00.669Z,99.99
2018-09-01T02:18:00.851Z,99.99
2018-09-01T02:19:01.034Z,99.99
2018-09-01T02:20:01.228Z,99.99
2018-09-01T02:21:01.419Z,99.99
2018-09-01T02:22:01.601Z,99.99
2018-09-01T02:23:01.782Z,99.99
2018-09-01T02:24:01.972Z,99.99
2018-09-01T02:25:02.162Z,99.99
2018-09-01T02:26:02.355Z,99.99
2018-09-01T02:27:02.553Z,99.99
2018-09-01T02:28:02.729Z,99.99
2018-09-01T02:29:02.918Z,99.99
2018-09-01T02:30:03.104Z,99.99
2018-09-01T02:31:03.289Z,99.99
2018-09-01T02:32:03.478Z,99.99
2018-09-01T02:33:03.664Z,99.99
2018-09-01T02:34:03.850Z,99.99
2018-09-01T02:35:04.033Z,99.99
2018-09-01T02:36:04.217Z,99.99
2018-09-01T02:37:04.409Z,99.99
2018-09-01T02:38:04.591Z,99.99
2018-09-01T02:39:04.780Z,99.99
2018-09-01T02:40:04.968Z,99.99
2018-09-01T02:41:05.171Z,99.99
2018-09-01T02:42:05.355Z,99.99
2018-09-01T02:43:05.538Z,99.99
2018-09-01T02:44:05.731Z,99.99
2018-09-01T02:45:05.916Z,99.99
2018-09-01T02:46:06.107Z,99.99
2018-09-01T02:47:06.300Z,99.99
2018-09-01T02:48:06.483Z,99.99
2018-09-01T02:49:06.669Z,99.99
2018-09-01T02:50:06.858Z,99.99
2018-09-01T02:51:07.041Z,99.99
2018-09-01T02:52:07.225Z,99.99
2018-09-01T02:53:07.409Z,99.99
2018-09-01T02:54:07.604Z,99.99
2018-09-01T02:55:07.791Z,99.99
2018-09-01T02:56:07.976Z,99.99
2018-09-01T02:57:08.160Z,99.99
2018-09-01T02:58:08.357Z,99.99
2018-09-01T02:59:08.546Z,99.99
2018-09-01T03:00:08.727Z,99.99
2018-09-01T03:01:08.915Z,99.99
2018-09-01T03:02:09.105Z,99.99
2018-09-01T03:03:09.292Z,99.99
2018-09-01T03:04:09.482Z,99.99
2018-09-01T03:05:09.667Z,99.99
2018-09-01T03:06:09.849Z,99.99
2018-09-01T03:07:10.035Z,99.99
2018-09-01T03:08:10.223Z,99.99
2018-09-01T03:09:10.412Z,99.99
2018-09-01T03:10:10.601Z,99.99
2018-09-01T03:11:10.788Z,99.99
2018-09-01T03:12:10.973Z,99.99
2018-09-01T03:13:11.157Z,99.99
2018-09-01T03:14:11.340Z,99.99
2018-09-01T03:15:11.527Z,99.99
2018-09-01T03:16:11.713Z,99.99
2018-09-01T03:17:11.899Z,99.99
2018-09-01T03:18:12.086Z,99.99
2018-09-01T03:19:12.269Z,99.99
2018-09-01T03:20:12.451Z,99.99
2018-09-01T03:21:12.644Z,99.99
2018-09-01T03:22:12.829Z,99.99
2018-09-01T03:23:13.014Z,99.99
2018-09-01T03:24:13.202Z,99.99
2018-09-01T03:25:13.388Z,99.99
2018-09-01T03:26:13.572Z,99.99
2018-09-01T03:27:13.761Z,99.99
2018-09-01T03:28:13.949Z,99.99
2018-09-01T03:29:14.130Z,99.99
2018-09-01T03:30:14.311Z,99.99
2018-09-01T03:31:14.500Z,99.99
2018-09-01T03:32:14.685Z,99.99
2018-09-01T03:33:14.864Z,99.99
2018-09-01T03:34:15.053Z,99.99
2018-09-01T03:35:15.233Z,99.99
2018-09-01T03:36:15.424Z,99.99
2018-09-01T03:37:15.610Z,99.99
2018-09-01T03:38:15.792Z,99.99
2018-09-01T03:39:15.980Z,99.99
2018-09-01T03:40:16.163Z,99.99
2018-09-01T03:41:16.349Z,99.99
2018-09-01T03:42:16.530Z,99.99
2018-09-01T03:43:16.723Z,99.99
2018-09-01T03:44:16.904Z,99.99
2018-09-01T03:45:17.090Z,99.99
2018-09-01T03:46:17.282Z,99.99
2018-09-01T03:47:17.468Z,99.99
2018-09-01T03:48:17.651Z,99.99
2018-09-01T03:49:17.838Z,99.99
2018-09-01T03:50:18.024Z,99.99
2018-09-01T03:51:18.207Z,99.99
2018-09-01T03:52:18.397Z,99.99
2018-09-01T03:53:18.580Z,99.99
2018-09-01T03:54:18.766Z,99.99
2018-09-01T03:55:18.950Z,99.99
2018-09-01T03:56:19.136Z,99.99
2018-09-01T03:57:19.322Z,99.99
2018-09-01T03:58:19.505Z,99.99
2018-09-01T03:59:19.695Z,99.99
2018-09-01T04:00:19.876Z,99.99
2018-09-01T04:01:20.064Z,99.99
2018-09-01T04:02:20.249Z,99.99
2018-09-01T04:03:20.434Z,99.99
2018-09-01T04:04:20.623Z,99.99
2018-09-01T04:05:20.804Z,99.99
2018-09-01T04:06:20.992Z,99.99
2018-09-01T04:07:21.178Z,99.99
2018-09-01T04:08:21.362Z,99.99
2018-09-01T04:09:21.549Z,99.99
2018-09-01T04:10:21.739Z,99.99
2018-09-01T04:11:21.914Z,99.99
2018-09-01T04:12:22.101Z,99.99
2018-09-01T04:13:22.284Z,99.99
2018-09-01T04:14:22.468Z,99.99
2018-09-01T04:15:22.659Z,99.99
2018-09-01T04:16:22.843Z,99.99
2018-09-01T04:17:23.022Z,99.99
2018-09-01T04:18:23.212Z,99.99
2018-09-01T04:19:23.409Z,99.99
2018-09-01T04:20:23.596Z,99.99
2018-09-01T04:21:23.780Z,99.99
2018-09-01T04:22:23.966Z,99.99
2018-09-01T04:23:24.173Z,99.99
2018-09-01T04:24:24.359Z,99.99
2018-09-01T04:25:24.549Z,99.99
2018-09-01T04:26:24.741Z,99.99
2018-09-01T04:27:24.927Z,99.99
2018-09-01T04:28:25.119Z,99.99
2018-09-01T04:29:25.313Z,99.99
2018-09-01T04:30:25.494Z,99.99
2018-09-01T04:31:25.679Z,99.99
2018-09-01T04:32:25.866Z,99.99
2018-09-01T04:33:26.053Z,99.99
2018-09-01T04:34:26.237Z,99.99
2018-09-01T04:35:26.426Z,99.99
2018-09-01T04:36:26.614Z,99.99
2018-09-01T04:37:26.807Z,99.99
2018-09-01T04:38:26.987Z,99.99
2018-09-01T04:39:27.170Z,99.99
2018-09-01T04:40:27.365Z,99.99
2018-09-01T04:41:27.555Z,99.99
2018-09-01T04:42:27.735Z,99.99
2018-09-01T04:43:27.926Z,99.99
2018-09-01T04:44:28.107Z,99.99
2018-09-01T04:45:28.306Z,99.99
2018-09-01T04:46:28.490Z,99.99
2018-09-01T04:47:28.683Z,99.99
2018-09-01T04:48:28.891Z,99.99
2018-09-01T04:49:29.057Z,99.99
2018-09-01T04:50:29.240Z,99.99
2018-09-01T04:51:29.431Z,99.99
2018-09-01T04:52:29.610Z,99.99
2018-09-01T04:53:29.795Z,99.99
2018-09-01T04:54:29.989Z,99.99
2018-09-01T04:55:30.170Z,99.99
2018-09-01T04:56:30.353Z,99.99
2018-09-01T04:57:30.544Z,99.99
2018-09-01T04:58:30.727Z,99.99
2018-09-01T04:59:30.907Z,99.99
2018-09-01T05:00:31.100Z,99.99
2018-09-01T05:01:31.280Z,99.99
2018-09-01T05:02:31.471Z,99.99
2018-09-01T05:03:31.660Z,99.99
2018-09-01T05:04:31.833Z,99.99
2018-09-01T05:05:32.023Z,99.99
2018-09-01T05:06:32.204Z,99.99
2018-09-01T05:07:32.392Z,99.99
2018-09-01T05:08:32.578Z,99.99
2018-09-01T05:09:32.765Z,99.99
2018-09-01T05:10:32.951Z,99.99
2018-09-01T05:11:33.139Z,99.99
2018-09-01T05:12:33.318Z,99.99
2018-09-01T05:13:33.502Z,99.99
2018-09-01T05:14:33.693Z,99.99
2018-09-01T05:15:33.883Z,99.99
2018-09-01T05:16:34.065Z,99.99
2018-09-01T05:17:34.253Z,99.99
2018-09-01T05:18:34.439Z,99.99
2018-09-01T05:19:34.639Z,99.99
2018-09-01T05:20:34.822Z,99.99
2018-09-01T05:21:35.024Z,99.99
2018-09-01T05:22:35.207Z,99.99
2018-09-01T05:23:35.390Z,99.99
2018-09-01T05:24:35.625Z,99.99
2018-09-01T05:25:35.762Z,99.99
2018-09-01T05:26:35.954Z,99.99
2018-09-01T05:27:36.136Z,99.99
2018-09-01T05:28:36.317Z,99.99
2018-09-01T05:29:36.508Z,99.99
2018-09-01T05:30:36.694Z,99.99
2018-09-01T05:31:36.893Z,99.99
2018-09-01T05:32:37.078Z,99.99
2018-09-01T05:33:37.268Z,99.99
2018-09-01T05:34:37.452Z,99.99
2018-09-01T05:35:37.633Z,99.99
2018-09-01T05:36:37.896Z,99.99
2018-09-01T05:37:38.017Z,99.99
2018-09-01T05:38:38.203Z,99.99
2018-09-01T05:39:38.393Z,99.99
2018-09-01T05:40:38.571Z,99.27
2018-09-01T05:41:38.760Z,99.46
2018-09-01T05:42:38.944Z,98.22
2018-09-01T05:43:39.146Z,98.60
2018-09-01T05:44:39.314Z,98.60
2018-09-01T05:45:39.517Z,99.17
2018-09-01T05:46:39.692Z,99.27
2018-09-01T05:47:39.875Z,98.88
2018-09-01T05:48:40.070Z,97.55
2018-09-01T05:49:40.254Z,96.27
2018-09-01T05:50:40.448Z,95.89
2018-09-01T05:51:40.634Z,94.17
2018-09-01T05:52:40.822Z,94.65
2018-09-01T05:53:41.007Z,91.94
2018-09-01T05:54:41.195Z,88.98
2018-09-01T05:55:41.385Z,84.16
2018-09-01T05:56:41.571Z,81.24
2018-09-01T05:57:41.757Z,79.36
2018-09-01T05:58:41.947Z,77.63
2018-09-01T05:59:42.141Z,75.91
2018-09-01T06:00:42.535Z,75.05
2018-09-01T06:01:42.511Z,74.80
2018-09-01T06:02:42.701Z,73.94
2018-09-01T06:03:42.891Z,73.80
2018-09-01T06:04:43.080Z,73.99
2018-09-01T06:05:43.272Z,74.76
2018-09-01T06:06:43.455Z,74.59
2018-09-01T06:07:43.648Z,76.12
2018-09-01T06:08:43.839Z,76.31
2018-09-01T06:09:44.030Z,76.21
2018-09-01T06:10:44.219Z,76.84
2018-09-01T06:11:44.411Z,77.76
2018-09-01T06:12:44.599Z,77.95
2018-09-01T06:13:44.788Z,79.19
2018-09-01T06:14:44.982Z,80.11
2018-09-01T06:15:45.179Z,80.33
2018-09-01T06:16:45.364Z,78.70
2018-09-01T06:17:45.687Z,76.54
2018-09-01T06:18:45.752Z,75.14
2018-09-01T06:19:45.944Z,73.80
2018-09-01T06:20:46.136Z,73.96
2018-09-01T06:21:46.322Z,74.84
2018-09-01T06:22:46.517Z,77.72
2018-09-01T06:23:46.749Z,81.92
2018-09-01T06:24:46.938Z,80.91
2018-09-01T06:25:47.090Z,78.85
2018-09-01T06:26:47.284Z,77.61
2018-09-01T06:27:47.476Z,77.86
2018-09-01T06:28:47.671Z,79.53
2018-09-01T06:29:47.865Z,80.91
2018-09-01T06:30:48.057Z,80.05
2018-09-01T06:31:48.249Z,80.58
2018-09-01T06:32:48.450Z,83.50
2018-09-01T06:33:48.634Z,85.50
2018-09-01T06:34:48.824Z,86.55
2018-09-01T06:35:49.019Z,86.69
2018-09-01T06:36:49.209Z,87.93
2018-09-01T06:37:49.401Z,86.11
2018-09-01T06:38:49.593Z,84.01
2018-09-01T06:39:49.781Z,83.35
2018-09-01T06:40:49.973Z,82.87
2018-09-01T06:41:50.165Z,83.83
2018-09-01T06:42:50.424Z,85.31
2018-09-01T06:43:50.570Z,87.50
2018-09-01T06:44:50.758Z,89.07
2018-09-01T06:45:50.959Z,90.98
2018-09-01T06:46:51.150Z,93.22
2018-09-01T06:47:51.342Z,95.79
2018-09-01T06:48:51.537Z,97.55
2018-09-01T06:49:51.727Z,98.88
2018-09-01T06:50:51.916Z,97.13
2018-09-01T06:51:52.107Z,94.03
2018-09-01T06:52:52.296Z,89.60
2018-09-01T06:53:52.489Z,87.50
2018-09-01T06:54:52.688Z,86.26
2018-09-01T06:55:52.875Z,86.65
2018-09-01T06:56:53.070Z,86.40
2018-09-01T06:57:53.255Z,85.54
2018-09-01T06:58:53.441Z,84.25
2018-09-01T06:59:53.633Z,82.09
2018-09-01T07:00:53.825Z,79.75
2018-09-01T07:01:54.031Z,77.50
2018-09-01T07:02:54.223Z,77.08
2018-09-01T07:03:54.403Z,77.95
2018-09-01T07:04:54.594Z,80.58
2018-09-01T07:05:54.785Z,83.97
2018-09-01T07:06:54.971Z,86.74
2018-09-01T07:07:55.176Z,85.45
2018-09-01T07:08:55.364Z,83.96
2018-09-01T07:09:55.552Z,80.41
2018-09-01T07:10:55.746Z,77.92
2018-09-01T07:11:55.936Z,75.89
2018-09-01T07:12:56.132Z,73.07
2018-09-01T07:13:56.319Z,69.68
2018-09-01T07:14:56.513Z,67.29
2018-09-01T07:15:56.707Z,66.99
2018-09-01T07:16:56.909Z,68.88
2018-09-01T07:17:57.104Z,68.15
2018-09-01T07:18:57.296Z,67.57
2018-09-01T07:19:57.503Z,66.46
2018-09-01T07:20:57.692Z,64.69
2018-09-01T07:21:57.889Z,64.05
2018-09-01T07:22:58.084Z,61.22
2018-09-01T07:23:58.275Z,61.32
2018-09-01T07:24:58.474Z,62.64
2018-09-01T07:25:58.682Z,64.53
2018-09-01T07:26:58.876Z,64.22
2018-09-01T07:27:59.075Z,63.28
2018-09-01T07:28:59.266Z,63.12
2018-09-01T07:29:59.468Z,64.22
2018-09-01T07:31:00.051Z,63.57
2018-09-01T07:31:59.865Z,62.64
2018-09-01T07:33:00.072Z,63.67
2018-09-01T07:34:00.264Z,65.43
2018-09-01T07:35:00.472Z,67.12
2018-09-01T07:36:00.682Z,68.18
2018-09-01T07:37:00.880Z,69.39
2018-09-01T07:38:01.090Z,69.29
2018-09-01T07:39:01.281Z,69.96
2018-09-01T07:40:01.482Z,70.83
2018-09-01T07:41:01.677Z,70.00
2018-09-01T07:42:01.877Z,69.26
2018-09-01T07:43:02.094Z,68.85
2018-09-01T07:44:02.294Z,68.79
2018-09-01T07:45:02.493Z,69.13
2018-09-01T07:46:02.689Z,68.69
2018-09-01T07:47:02.888Z,67.76
2018-09-01T07:48:03.092Z,67.79
2018-09-01T07:49:03.289Z,68.88
2018-09-01T07:50:03.501Z,68.88
2018-09-01T07:51:03.686Z,67.99
2018-09-01T07:52:03.883Z,68.33
2018-09-01T07:53:04.076Z,70.54
2018-09-01T07:54:04.276Z,71.27
2018-09-01T07:55:04.477Z,70.96
2018-09-01T07:56:04.777Z,70.29
2018-09-01T07:57:04.872Z,69.01
2018-09-01T07:58:05.081Z,67.64
2018-09-01T07:59:05.272Z,65.75
2018-09-01T08:00:05.479Z,64.28
2018-09-01T08:01:05.677Z,62.35
2018-09-01T08:02:05.870Z,60.03
2018-09-01T08:03:06.066Z,58.10
2018-09-01T08:04:06.262Z,55.67
2018-09-01T08:05:06.472Z,53.19
2018-09-01T08:06:06.667Z,51.98
2018-09-01T08:07:06.862Z,49.63
2018-09-01T08:08:07.064Z,48.37
2018-09-01T08:09:07.270Z,47.35
2018-09-01T08:10:07.461Z,47.45
2018-09-01T08:11:07.665Z,48.08
2018-09-01T08:12:07.867Z,48.74
2018-09-01T08:13:08.067Z,50.33
2018-09-01T08:14:08.298Z,51.20
2018-09-01T08:15:08.477Z,51.10
2018-09-01T08:16:08.673Z,50.96
2018-09-01T08:17:08.883Z,55.15
2018-09-01T08:18:09.085Z,58.56
2018-09-01T08:19:09.310Z,60.94
2018-09-01T08:20:09.510Z,60.38
2018-09-01T08:21:09.722Z,57.06
2018-09-01T08:22:09.925Z,55.81
2018-09-01T08:23:10.125Z,54.71
2018-09-01T08:24:10.333Z,55.76
2018-09-01T08:25:10.536Z,56.84
2018-09-01T08:26:10.837Z,55.16
2018-09-01T08:27:10.959Z,55.19
2018-09-01T08:28:11.159Z,53.96
2018-09-01T08:29:11.372Z,52.92
2018-09-01T08:30:11.577Z,52.17
2018-09-01T08:31:11.794Z,53.57
2018-09-01T08:32:12.007Z,53.21
2018-09-01T08:33:12.205Z,53.04
2018-09-01T08:34:12.406Z,52.73
2018-09-01T08:35:12.618Z,52.70
2018-09-01T08:36:12.818Z,53.50
2018-09-01T08:37:13.022Z,53.11
2018-09-01T08:38:13.223Z,51.98
2018-09-01T08:39:13.434Z,50.87
2018-09-01T08:40:13.685Z,50.67
2018-09-01T08:41:13.836Z,50.34
2018-09-01T08:42:14.042Z,49.99
2018-09-01T08:43:14.249Z,52.12
2018-09-01T08:44:14.447Z,55.16
2018-09-01T08:45:14.661Z,53.89
2018-09-01T08:46:14.854Z,53.59
2018-09-01T08:47:15.058Z,52.87
2018-09-01T08:48:15.262Z,52.99
2018-09-01T08:49:15.478Z,52.89
2018-09-01T08:50:15.681Z,53.04
2018-09-01T08:51:15.885Z,51.37
2018-09-01T08:52:16.093Z,52.00
2018-09-01T08:53:16.296Z,50.04
2018-09-01T08:54:16.499Z,49.95
2018-09-01T08:55:16.706Z,51.37
2018-09-01T08:56:16.907Z,51.98
2018-09-01T08:57:17.111Z,52.44
2018-09-01T08:58:17.318Z,53.43
2018-09-01T08:59:17.540Z,53.28
2018-09-01T09:00:17.722Z,55.71
2018-09-01T09:01:17.928Z,54.32
2018-09-01T09:02:18.139Z,52.99
2018-09-01T09:03:18.338Z,51.78
2018-09-01T09:04:18.546Z,51.23
2018-09-01T09:05:18.773Z,50.74
2018-09-01T09:06:18.963Z,50.09
2018-09-01T09:07:19.176Z,49.80
2018-09-01T09:08:19.385Z,49.92
2018-09-01T09:09:19.584Z,50.09
2018-09-01T09:10:19.787Z,51.93
2018-09-01T09:11:19.998Z,53.52
2018-09-01T09:12:20.197Z,53.43
2018-09-01T09:13:20.406Z,50.02
2018-09-01T09:14:20.608Z,48.37
2018-09-01T09:15:20.817Z,49.02
2018-09-01T09:16:21.019Z,49.12
2018-09-01T09:17:21.222Z,48.76
2018-09-01T09:18:21.421Z,47.89
2018-09-01T09:19:21.637Z,49.10
2018-09-01T09:20:21.832Z,49.46
2018-09-01T09:21:22.085Z,51.78
2018-09-01T09:22:22.307Z,53.28
2018-09-01T09:23:22.506Z,52.05
2018-09-01T09:24:22.711Z,50.21
2018-09-01T09:25:22.917Z,48.25
2018-09-01T09:26:23.117Z,49.17
2018-09-01T09:27:23.319Z,49.68
2018-09-01T09:28:23.526Z,50.02
2018-09-01T09:29:23.732Z,51.28
2018-09-01T09:30:23.940Z,51.03
2018-09-01T09:31:24.139Z,51.15
2018-09-01T09:32:24.343Z,50.21
2018-09-01T09:33:24.542Z,50.33
2018-09-01T09:34:24.812Z,50.55
2018-09-01T09:35:24.964Z,49.85
2018-09-01T09:36:25.176Z,49.70
2018-09-01T09:37:25.377Z,52.34
2018-09-01T09:38:25.573Z,51.08
2018-09-01T09:39:25.779Z,50.94
2018-09-01T09:40:25.990Z,49.10
2018-09-01T09:41:26.199Z,50.07
2018-09-01T09:42:26.402Z,50.31
2018-09-01T09:43:26.605Z,49.77
2018-09-01T09:44:26.822Z,48.93
2018-09-01T09:45:27.004Z,48.83
2018-09-01T09:46:27.230Z,47.96
2018-09-01T09:47:27.431Z,47.60
2018-09-01T09:48:27.640Z,47.06
2018-09-01T09:49:27.844Z,47.16
2018-09-01T09:50:28.046Z,50.72
2018-09-01T09:51:28.267Z,49.02
2018-09-01T09:52:28.473Z,46.45
2018-09-01T09:53:28.677Z,44.68
2018-09-01T09:54:28.911Z,43.43
2018-09-01T09:55:29.094Z,47.64
2018-09-01T09:56:29.297Z,49.17
2018-09-01T09:57:29.507Z,49.15
2018-09-01T09:58:29.728Z,49.05
2018-09-01T09:59:29.933Z,45.55
2018-09-01T10:00:30.141Z,43.73
2018-09-01T10:01:30.341Z,43.02
2018-09-01T10:02:30.557Z,43.30
2018-09-01T10:03:30.762Z,43.10
2018-09-01T10:04:30.974Z,43.82
2018-09-01T10:05:31.184Z,46.04
2018-09-01T10:06:31.376Z,44.75
2018-09-01T10:07:31.577Z,44.17
2018-09-01T10:08:31.795Z,43.10
2018-09-01T10:09:31.998Z,43.01
2018-09-01T10:10:32.194Z,44.90
2018-09-01T10:11:32.399Z,46.04
2018-09-01T10:12:32.602Z,45.78
2018-09-01T10:13:32.807Z,44.56
2018-09-01T10:14:33.007Z,46.72
2018-09-01T10:15:33.222Z,47.28
2018-09-01T10:16:33.414Z,45.72
2018-09-01T10:17:33.618Z,44.37
2018-09-01T10:18:33.867Z,44.24
2018-09-01T10:19:34.036Z,44.34
2018-09-01T10:20:34.336Z,47.09
2018-09-01T10:21:34.451Z,51.10
2018-09-01T10:22:34.658Z,51.71
2018-09-01T10:23:34.861Z,50.67
2018-09-01T10:24:35.053Z,49.44
2018-09-01T10:25:35.251Z,48.15
2018-09-01T10:26:35.461Z,45.71
2018-09-01T10:27:35.660Z,44.72
2018-09-01T10:28:35.884Z,45.56
2018-09-01T10:29:36.076Z,44.07
2018-09-01T10:30:36.279Z,43.33
2018-09-01T10:31:36.482Z,46.39
2018-09-01T10:32:36.690Z,47.60
2018-09-01T10:33:36.893Z,46.00
2018-09-01T10:34:37.102Z,43.12
2018-09-01T10:35:37.298Z,43.38
2018-09-01T10:36:37.523Z,45.18
2018-09-01T10:37:37.699Z,44.30
2018-09-01T10:38:37.984Z,42.60
2018-09-01T10:39:38.109Z,43.31
2018-09-01T10:40:38.307Z,46.42
2018-09-01T10:41:38.510Z,47.70
2018-09-01T10:42:38.717Z,51.22
2018-09-01T10:43:38.943Z,52.20
2018-09-01T10:44:39.149Z,53.62
2018-09-01T10:45:39.349Z,53.58
2018-09-01T10:46:39.552Z,51.63
2018-09-01T10:47:39.756Z,50.50
2018-09-01T10:48:39.955Z,49.73
2018-09-01T10:49:40.156Z,49.99
2018-09-01T10:50:40.357Z,49.90
2018-09-01T10:51:40.554Z,50.54
2018-09-01T10:52:40.765Z,51.05
2018-09-01T10:53:40.954Z,49.95
2018-09-01T10:54:41.153Z,49.55
2018-09-01T10:55:41.358Z,48.16
2018-09-01T10:56:41.558Z,47.91
2018-09-01T10:57:41.763Z,45.49
2018-09-01T10:58:41.966Z,42.97
2018-09-01T10:59:42.295Z,43.09
2018-09-01T11:00:42.367Z,42.14
2018-09-01T11:01:42.567Z,40.59
2018-09-01T11:02:42.782Z,40.77
2018-09-01T11:03:42.993Z,41.20
2018-09-01T11:04:43.201Z,38.81
2018-09-01T11:05:43.455Z,41.50
2018-09-01T11:06:43.588Z,42.86
2018-09-01T11:07:43.814Z,44.09
2018-09-01T11:08:44.021Z,45.36
2018-09-01T11:09:44.223Z,46.95
2018-09-01T11:10:44.436Z,46.42
2018-09-01T11:11:44.643Z,47.58
2018-09-01T11:12:44.839Z,48.16
2018-09-01T11:13:45.058Z,47.99
2018-09-01T11:14:45.247Z,47.77
2018-09-01T11:15:45.466Z,48.97
2018-09-01T11:16:45.658Z,48.90
2018-09-01T11:17:45.875Z,47.26
2018-09-01T11:18:46.042Z,46.81
2018-09-01T11:19:46.286Z,48.30
2018-09-01T11:20:46.468Z,47.63
2018-09-01T11:21:46.692Z,45.57
2018-09-01T11:22:46.864Z,42.22
2018-09-01T11:23:47.072Z,41.49
2018-09-01T11:24:47.290Z,39.86
2018-09-01T11:25:47.502Z,39.41
2018-09-01T11:26:47.705Z,40.89
2018-09-01T11:27:47.989Z,40.79
2018-09-01T11:28:48.151Z,40.65
2018-09-01T11:29:48.354Z,40.86
2018-09-01T11:30:48.548Z,42.03
2018-09-01T11:31:48.766Z,41.76
2018-09-01T11:32:48.970Z,39.65
2018-09-01T11:33:49.166Z,38.02
2018-09-01T11:34:49.402Z,39.43
2018-09-01T11:35:49.562Z,40.63
2018-09-01T11:36:49.811Z,41.55
2018-09-01T11:37:49.961Z,41.39
2018-09-01T11:38:50.159Z,39.37
2018-09-01T11:39:50.358Z,38.46
2018-09-01T11:40:50.560Z,39.57
2018-09-01T11:41:50.751Z,41.39
2018-09-01T11:42:51.029Z,42.85
2018-09-01T11:43:51.160Z,44.78
2018-09-01T11:44:51.385Z,45.09
2018-09-01T11:45:51.575Z,45.89
2018-09-01T11:46:51.777Z,44.32
2018-09-01T11:47:51.986Z,45.04
2018-09-01T11:48:52.171Z,46.78
2018-09-01T11:49:52.394Z,45.96
2018-09-01T11:50:52.579Z,44.90
2018-09-01T11:51:52.785Z,43.81
2018-09-01T11:52:52.982Z,44.03
2018-09-01T11:53:53.187Z,44.20
2018-09-01T11:54:53.378Z,44.01
2018-09-01T11:55:53.582Z,43.43
2018-09-01T11:56:53.773Z,44.03
2018-09-01T11:57:53.973Z,43.33
2018-09-01T11:58:54.283Z,44.01
2018-09-01T11:59:54.395Z,44.29
2018-09-01T12:00:54.566Z,44.18
2018-09-01T12:01:54.757Z,45.36
2018-09-01T12:02:54.954Z,45.26
2018-09-01T12:03:55.150Z,44.80
2018-09-01T12:04:55.351Z,44.43
2018-09-01T12:05:55.546Z,43.18
2018-09-01T12:06:55.745Z,42.89
2018-09-01T12:07:55.940Z,42.31
2018-09-01T12:08:56.168Z,42.31
2018-09-01T12:09:56.341Z,42.99
2018-09-01T12:10:56.534Z,42.99
2018-09-01T12:11:56.747Z,43.37
2018-09-01T12:12:56.949Z,43.76
2018-09-01T12:13:57.146Z,42.89
2018-09-01T12:14:57.338Z,43.01
2018-09-01T12:15:57.576Z,42.60
2018-09-01T12:16:57.734Z,42.62
2018-09-01T12:17:57.929Z,43.08
2018-09-01T12:18:58.124Z,42.91
2018-09-01T12:19:58.324Z,43.13
2018-09-01T12:20:58.523Z,41.89
2018-09-01T12:21:58.705Z,41.21
2018-09-01T12:22:58.905Z,40.63
2018-09-01T12:23:59.113Z,41.50
2018-09-01T12:24:59.313Z,41.11
2018-09-01T12:25:59.507Z,41.77
2018-09-01T12:26:59.704Z,42.25
2018-09-01T12:27:59.897Z,42.83
2018-09-01T12:29:00.104Z,42.16
2018-09-01T12:30:00.310Z,41.97
2018-09-01T12:31:00.495Z,42.25
2018-09-01T12:32:00.687Z,42.21
2018-09-01T12:33:00.883Z,42.79
2018-09-01T12:34:01.079Z,43.18
2018-09-01T12:35:01.275Z,42.39
2018-09-01T12:36:01.498Z,42.60
2018-09-01T12:37:01.687Z,42.82
2018-09-01T12:38:01.876Z,42.43
2018-09-01T12:39:02.073Z,42.52
2018-09-01T12:40:02.279Z,42.24
2018-09-01T12:41:02.475Z,42.79
2018-09-01T12:42:02.694Z,42.89
2018-09-01T12:43:02.873Z,43.10
2018-09-01T12:44:03.087Z,42.39
2018-09-01T12:45:03.285Z,42.79
2018-09-01T12:46:03.483Z,42.08
2018-09-01T12:47:03.675Z,43.33
2018-09-01T12:48:03.868Z,44.76
2018-09-01T12:49:04.060Z,44.73
2018-09-01T12:50:04.255Z,45.82
2018-09-01T12:51:04.459Z,45.43
2018-09-01T12:52:04.733Z,44.78
2018-09-01T12:53:04.884Z,42.94
2018-09-01T12:54:05.048Z,42.97
2018-09-01T12:55:05.233Z,42.12